sensor_id;sensor_type;location;lat;lon;timestamp;pressure;altitude;pressure_sealevel;temperature;humidity
47670;BME280;33408;52.062;11.722;2023-08-01T00:00:06;99710.09;;;17.06;100.00
47670;BME280;33408;52.062;11.722;2023-08-01T00:02:35;99701.41;;;17.06;100.00
47670;BME280;33408;52.062;11.722;2023-08-01T00:05:02;99706.38;;;16.96;100.00
47670;BME280;33408;52.062;11.722;2023-08-01T00:07:29;99712.69;;;17.06;100.00
47670;BME280;33408;52.062;11.722;2023-08-01T00:09:56;99709.53;;;17.01;100.00
47670;BME280;33408;52.062;11.722;2023-08-01T00:12:24;99705.25;;;17.00;100.00
47670;BME280;33408;52.062;11.722;2023-08-01T00:14:50;99699.53;;;16.93;100.00
47670;BME280;33408;52.062;11.722;2023-08-01T00:17:17;99692.63;;;16.92;100.00
47670;BME280;33408;52.062;11.722;2023-08-01T00:19:45;99693.47;;;16.93;100.00
47670;BME280;33408;52.062;11.722;2023-08-01T00:22:11;99684.50;;;16.97;100.00
47670;BME280;33408;52.062;11.722;2023-08-01T00:24:38;99679.25;;;16.97;100.00
47670;BME280;33408;52.062;11.722;2023-08-01T00:27:04;99668.44;;;16.89;100.00
47670;BME280;33408;52.062;11.722;2023-08-01T00:29:33;99668.13;;;16.93;100.00
47670;BME280;33408;52.062;11.722;2023-08-01T00:31:59;99672.78;;;16.88;100.00
47670;BME280;33408;52.062;11.722;2023-08-01T00:34:26;99676.81;;;16.94;100.00
47670;BME280;33408;52.062;11.722;2023-08-01T00:36:54;99677.94;;;16.90;100.00
47670;BME280;33408;52.062;11.722;2023-08-01T00:39:20;99662.03;;;16.93;100.00
47670;BME280;33408;52.062;11.722;2023-08-01T00:41:47;99648.38;;;17.02;100.00
47670;BME280;33408;52.062;11.722;2023-08-01T00:44:13;99622.03;;;17.05;100.00
47670;BME280;33408;52.062;11.722;2023-08-01T00:46:40;99591.91;;;16.98;100.00
47670;BME280;33408;52.062;11.722;2023-08-01T00:49:07;99603.16;;;17.00;100.00
47670;BME280;33408;52.062;11.722;2023-08-01T00:51:33;99609.41;;;16.98;100.00
47670;BME280;33408;52.062;11.722;2023-08-01T00:54:02;99603.53;;;16.94;100.00
47670;BME280;33408;52.062;11.722;2023-08-01T00:56:29;99597.91;;;17.00;100.00
47670;BME280;33408;52.062;11.722;2023-08-01T00:58:55;99593.53;;;16.86;100.00
47670;BME280;33408;52.062;11.722;2023-08-01T01:01:22;99588.00;;;16.91;100.00
47670;BME280;33408;52.062;11.722;2023-08-01T01:03:50;99578.81;;;16.98;100.00
47670;BME280;33408;52.062;11.722;2023-08-01T01:06:20;99562.53;;;17.07;100.00
47670;BME280;33408;52.062;11.722;2023-08-01T01:08:50;99577.25;;;16.95;100.00
47670;BME280;33408;52.062;11.722;2023-08-01T01:11:20;99572.91;;;17.09;100.00
47670;BME280;33408;52.062;11.722;2023-08-01T01:13:46;99563.88;;;17.00;100.00
47670;BME280;33408;52.062;11.722;2023-08-01T01:16:13;99552.06;;;17.07;100.00
47670;BME280;33408;52.062;11.722;2023-08-01T01:18:40;99543.31;;;16.94;100.00
47670;BME280;33408;52.062;11.722;2023-08-01T01:21:08;99536.94;;;16.98;100.00
47670;BME280;33408;52.062;11.722;2023-08-01T01:23:35;99530.34;;;16.92;100.00
47670;BME280;33408;52.062;11.722;2023-08-01T01:26:02;99525.44;;;17.01;100.00
47670;BME280;33408;52.062;11.722;2023-08-01T01:28:31;99517.16;;;16.94;100.00
47670;BME280;33408;52.062;11.722;2023-08-01T01:30:58;99524.22;;;16.92;100.00
47670;BME280;33408;52.062;11.722;2023-08-01T01:33:25;99520.16;;;16.88;100.00
47670;BME280;33408;52.062;11.722;2023-08-01T01:35:52;99516.59;;;16.89;100.00
47670;BME280;33408;52.062;11.722;2023-08-01T01:38:20;99509.69;;;16.88;100.00
47670;BME280;33408;52.062;11.722;2023-08-01T01:40:46;99510.22;;;16.93;100.00
47670;BME280;33408;52.062;11.722;2023-08-01T01:43:13;99507.31;;;16.98;100.00
47670;BME280;33408;52.062;11.722;2023-08-01T01:45:39;99492.44;;;16.98;100.00
47670;BME280;33408;52.062;11.722;2023-08-01T01:48:06;99487.19;;;16.98;100.00
47670;BME280;33408;52.062;11.722;2023-08-01T01:50:32;99481.84;;;17.00;100.00
47670;BME280;33408;52.062;11.722;2023-08-01T01:52:59;99477.88;;;16.94;100.00
47670;BME280;33408;52.062;11.722;2023-08-01T01:55:27;99473.38;;;16.96;100.00
47670;BME280;33408;52.062;11.722;2023-08-01T01:57:54;99469.72;;;16.99;100.00
47670;BME280;33408;52.062;11.722;2023-08-01T02:00:20;99460.78;;;16.88;100.00
47670;BME280;33408;52.062;11.722;2023-08-01T02:02:47;99467.81;;;16.88;100.00
47670;BME280;33408;52.062;11.722;2023-08-01T02:05:13;99461.50;;;16.90;100.00
47670;BME280;33408;52.062;11.722;2023-08-01T02:07:40;99459.03;;;16.89;100.00
47670;BME280;33408;52.062;11.722;2023-08-01T02:10:07;99458.78;;;16.92;100.00
47670;BME280;33408;52.062;11.722;2023-08-01T02:12:35;99454.06;;;16.84;100.00
47670;BME280;33408;52.062;11.722;2023-08-01T02:15:02;99457.88;;;16.93;100.00
47670;BME280;33408;52.062;11.722;2023-08-01T02:17:29;99455.34;;;16.91;100.00
47670;BME280;33408;52.062;11.722;2023-08-01T02:19:56;99447.41;;;16.93;100.00
47670;BME280;33408;52.062;11.722;2023-08-01T02:22:25;99444.97;;;16.90;100.00
47670;BME280;33408;52.062;11.722;2023-08-01T02:24:52;99452.94;;;16.88;100.00
47670;BME280;33408;52.062;11.722;2023-08-01T02:27:19;99455.06;;;16.96;100.00
47670;BME280;33408;52.062;11.722;2023-08-01T02:29:47;99455.06;;;16.96;100.00
47670;BME280;33408;52.062;11.722;2023-08-01T02:32:15;99439.97;;;17.00;100.00
47670;BME280;33408;52.062;11.722;2023-08-01T02:34:41;99439.97;;;17.00;100.00
47670;BME280;33408;52.062;11.722;2023-08-01T02:37:08;99434.84;;;16.98;100.00
47670;BME280;33408;52.062;11.722;2023-08-01T02:39:34;99432.97;;;17.00;100.00
47670;BME280;33408;52.062;11.722;2023-08-01T02:42:01;99420.63;;;17.02;100.00
47670;BME280;33408;52.062;11.722;2023-08-01T02:44:28;99418.81;;;17.03;100.00
47670;BME280;33408;52.062;11.722;2023-08-01T02:46:57;99413.28;;;17.07;100.00
47670;BME280;33408;52.062;11.722;2023-08-01T02:49:23;99416.22;;;17.03;100.00
47670;BME280;33408;52.062;11.722;2023-08-01T02:51:50;99416.75;;;17.08;100.00
47670;BME280;33408;52.062;11.722;2023-08-01T02:54:16;99407.22;;;17.07;100.00
47670;BME280;33408;52.062;11.722;2023-08-01T02:56:43;99411.41;;;17.09;100.00
47670;BME280;33408;52.062;11.722;2023-08-01T02:59:09;99402.41;;;17.13;100.00
47670;BME280;33408;52.062;11.722;2023-08-01T03:01:37;99409.53;;;17.11;100.00
47670;BME280;33408;52.062;11.722;2023-08-01T03:04:06;99402.50;;;17.12;100.00
47670;BME280;33408;52.062;11.722;2023-08-01T03:06:33;99406.06;;;17.11;100.00
47670;BME280;33408;52.062;11.722;2023-08-01T03:08:59;99409.63;;;17.10;100.00
47670;BME280;33408;52.062;11.722;2023-08-01T03:11:26;99405.13;;;17.12;100.00
47670;BME280;33408;52.062;11.722;2023-08-01T03:13:53;99405.22;;;17.10;100.00
47670;BME280;33408;52.062;11.722;2023-08-01T03:16:20;99402.41;;;17.13;100.00
47670;BME280;33408;52.062;11.722;2023-08-01T03:18:46;99400.72;;;17.12;100.00
47670;BME280;33408;52.062;11.722;2023-08-01T03:21:14;99402.81;;;17.07;100.00
47670;BME280;33408;52.062;11.722;2023-08-01T03:23:41;99393.38;;;17.05;100.00
47670;BME280;33408;52.062;11.722;2023-08-01T03:26:08;99386.47;;;17.04;100.00
47670;BME280;33408;52.062;11.722;2023-08-01T03:28:34;99383.66;;;17.07;100.00
47670;BME280;33408;52.062;11.722;2023-08-01T03:31:01;99382.50;;;17.11;100.00
47670;BME280;33408;52.062;11.722;2023-08-01T03:33:28;99373.91;;;17.09;100.00
47670;BME280;33408;52.062;11.722;2023-08-01T03:35:55;99375.06;;;17.05;100.00
47670;BME280;33408;52.062;11.722;2023-08-01T03:38:23;99361.97;;;17.05;100.00
47670;BME280;33408;52.062;11.722;2023-08-01T03:40:49;99362.19;;;17.02;100.00
47670;BME280;33408;52.062;11.722;2023-08-01T03:43:16;99354.88;;;17.07;100.00
47670;BME280;33408;52.062;11.722;2023-08-01T03:45:42;99347.53;;;17.12;100.00
47670;BME280;33408;52.062;11.722;2023-08-01T03:48:09;99334.03;;;17.05;100.00
47670;BME280;33408;52.062;11.722;2023-08-01T03:50:36;99326.16;;;17.05;100.00
47670;BME280;33408;52.062;11.722;2023-08-01T03:53:03;99323.34;;;17.08;100.00
47670;BME280;33408;52.062;11.722;2023-08-01T03:55:31;99301.63;;;17.06;100.00
47670;BME280;33408;52.062;11.722;2023-08-01T03:57:57;99287.22;;;17.01;100.00
47670;BME280;33408;52.062;11.722;2023-08-01T04:00:24;99287.94;;;17.03;100.00
47670;BME280;33408;52.062;11.722;2023-08-01T04:02:51;99286.38;;;17.00;100.00
47670;BME280;33408;52.062;11.722;2023-08-01T04:05:17;99291.50;;;17.02;100.00
47670;BME280;33408;52.062;11.722;2023-08-01T04:07:44;99298.28;;;17.04;100.00
47670;BME280;33408;52.062;11.722;2023-08-01T04:10:11;99309.50;;;17.06;100.00
47670;BME280;33408;52.062;11.722;2023-08-01T04:12:38;99306.66;;;17.09;100.00
47670;BME280;33408;52.062;11.722;2023-08-01T04:15:06;99305.00;;;17.08;100.00
47670;BME280;33408;52.062;11.722;2023-08-01T04:17:33;99298.28;;;17.04;100.00
47670;BME280;33408;52.062;11.722;2023-08-01T04:19:59;99301.03;;;17.16;100.00
47670;BME280;33408;52.062;11.722;2023-08-01T04:22:26;99286.59;;;17.10;100.00
47670;BME280;33408;52.062;11.722;2023-08-01T04:24:52;99279.34;;;17.13;100.00
47670;BME280;33408;52.062;11.722;2023-08-01T04:27:19;99275.16;;;17.11;100.00
47670;BME280;33408;52.062;11.722;2023-08-01T04:29:47;99270.13;;;17.08;100.00
47670;BME280;33408;52.062;11.722;2023-08-01T04:32:13;99259.75;;;17.06;100.00
47670;BME280;33408;52.062;11.722;2023-08-01T04:34:40;99269.50;;;17.04;100.00
47670;BME280;33408;52.062;11.722;2023-08-01T04:37:07;99271.09;;;17.07;100.00
47670;BME280;33408;52.062;11.722;2023-08-01T04:39:35;99262.91;;;17.11;100.00
47670;BME280;33408;52.062;11.722;2023-08-01T04:42:02;99258.50;;;17.12;100.00
47670;BME280;33408;52.062;11.722;2023-08-01T04:44:29;99266.03;;;17.17;100.00
47670;BME280;33408;52.062;11.722;2023-08-01T04:46:57;99270.41;;;17.16;100.00
47670;BME280;33408;52.062;11.722;2023-08-01T04:49:24;99264.03;;;17.20;100.00
47670;BME280;33408;52.062;11.722;2023-08-01T04:51:50;99264.66;;;17.24;100.00
47670;BME280;33408;52.062;11.722;2023-08-01T04:54:17;99263.72;;;17.25;100.00
47670;BME280;33408;52.062;11.722;2023-08-01T04:56:44;99245.91;;;17.30;100.00
47670;BME280;33408;52.062;11.722;2023-08-01T04:59:10;99244.13;;;17.30;100.00
47670;BME280;33408;52.062;11.722;2023-08-01T05:01:37;99231.16;;;17.16;100.00
47670;BME280;33408;52.062;11.722;2023-08-01T05:04:05;99236.25;;;17.30;100.00
47670;BME280;33408;52.062;11.722;2023-08-01T05:06:31;99242.25;;;17.20;100.00
47670;BME280;33408;52.062;11.722;2023-08-01T05:08:58;99247.19;;;17.24;100.00
47670;BME280;33408;52.062;11.722;2023-08-01T05:11:24;99254.69;;;17.29;100.00
47670;BME280;33408;52.062;11.722;2023-08-01T05:13:51;99247.47;;;17.33;100.00
47670;BME280;33408;52.062;11.722;2023-08-01T05:16:17;99252.72;;;17.33;100.00
47670;BME280;33408;52.062;11.722;2023-08-01T05:18:44;99252.94;;;17.29;100.00
47670;BME280;33408;52.062;11.722;2023-08-01T05:21:12;99253.03;;;17.28;100.00
47670;BME280;33408;52.062;11.722;2023-08-01T05:23:38;99250.53;;;17.26;100.00
47670;BME280;33408;52.062;11.722;2023-08-01T05:26:05;99255.44;;;17.31;100.00
47670;BME280;33408;52.062;11.722;2023-08-01T05:28:32;99241.31;;;17.21;100.00
47670;BME280;33408;52.062;11.722;2023-08-01T05:30:58;99228.84;;;17.24;100.00
47670;BME280;33408;52.062;11.722;2023-08-01T05:33:25;99216.38;;;17.28;100.00
47670;BME280;33408;52.062;11.722;2023-08-01T05:35:51;99224.09;;;17.42;100.00
47670;BME280;33408;52.062;11.722;2023-08-01T05:38:19;99219.06;;;17.39;100.00
47670;BME280;33408;52.062;11.722;2023-08-01T05:40:46;99237.63;;;17.36;100.00
47670;BME280;33408;52.062;11.722;2023-08-01T05:43:12;99220.50;;;17.43;100.00
47670;BME280;33408;52.062;11.722;2023-08-01T05:45:39;99213.19;;;17.48;100.00
47670;BME280;33408;52.062;11.722;2023-08-01T05:48:06;99209.69;;;17.48;100.00
47670;BME280;33408;52.062;11.722;2023-08-01T05:50:32;99201.09;;;17.59;100.00
47670;BME280;33408;52.062;11.722;2023-08-01T05:52:59;99201.59;;;17.64;100.00
47670;BME280;33408;52.062;11.722;2023-08-01T05:55:27;99206.81;;;17.64;100.00
47670;BME280;33408;52.062;11.722;2023-08-01T05:57:53;99199.00;;;17.75;100.00
47670;BME280;33408;52.062;11.722;2023-08-01T06:00:20;99201.91;;;17.83;100.00
47670;BME280;33408;52.062;11.722;2023-08-01T06:02:47;99204.53;;;17.83;100.00
47670;BME280;33408;52.062;11.722;2023-08-01T06:05:13;99215.00;;;17.83;100.00
47670;BME280;33408;52.062;11.722;2023-08-01T06:07:40;99227.72;;;17.90;100.00
47670;BME280;33408;52.062;11.722;2023-08-01T06:10:07;99223.81;;;17.95;100.00
47670;BME280;33408;52.062;11.722;2023-08-01T06:12:36;99229.44;;;18.02;100.00
47670;BME280;33408;52.062;11.722;2023-08-01T06:15:03;99230.88;;;18.06;100.00
47670;BME280;33408;52.062;11.722;2023-08-01T06:17:30;99228.78;;;18.11;100.00
47670;BME280;33408;52.062;11.722;2023-08-01T06:19:57;99230.09;;;18.17;100.00
47670;BME280;33408;52.062;11.722;2023-08-01T06:22:23;99232.38;;;18.21;100.00
47670;BME280;33408;52.062;11.722;2023-08-01T06:24:50;99245.25;;;18.25;100.00
47670;BME280;33408;52.062;11.722;2023-08-01T06:27:16;99233.56;;;18.29;100.00
47670;BME280;33408;52.062;11.722;2023-08-01T06:29:44;99228.03;;;18.45;100.00
47670;BME280;33408;52.062;11.722;2023-08-01T06:32:11;99237.00;;;18.53;100.00
47670;BME280;33408;52.062;11.722;2023-08-01T06:34:37;99228.41;;;18.63;100.00
47670;BME280;33408;52.062;11.722;2023-08-01T06:37:04;99224.97;;;18.73;100.00
47670;BME280;33408;52.062;11.722;2023-08-01T06:39:31;99220.31;;;18.66;100.00
47670;BME280;33408;52.062;11.722;2023-08-01T06:41:58;99225.22;;;18.70;100.00
47670;BME280;33408;52.062;11.722;2023-08-01T06:44:24;99234.16;;;18.68;100.00
47670;BME280;33408;52.062;11.722;2023-08-01T06:46:52;99220.44;;;18.75;100.00
47670;BME280;33408;52.062;11.722;2023-08-01T06:49:19;99220.09;;;18.80;100.00
47670;BME280;33408;52.062;11.722;2023-08-01T06:51:45;99197.13;;;18.84;100.00
47670;BME280;33408;52.062;11.722;2023-08-01T06:54:12;99190.28;;;19.04;100.00
47670;BME280;33408;52.062;11.722;2023-08-01T06:56:38;99195.31;;;18.95;100.00
47670;BME280;33408;52.062;11.722;2023-08-01T06:59:05;99188.25;;;19.07;100.00
47670;BME280;33408;52.062;11.722;2023-08-01T07:01:32;99192.91;;;19.04;100.00
47670;BME280;33408;52.062;11.722;2023-08-01T07:04:01;99190.53;;;19.12;100.00
47670;BME280;33408;52.062;11.722;2023-08-01T07:06:28;99206.75;;;18.94;100.00
47670;BME280;33408;52.062;11.722;2023-08-01T07:08:54;99205.34;;;19.02;100.00
47670;BME280;33408;52.062;11.722;2023-08-01T07:11:22;99183.59;;;19.11;100.00
47670;BME280;33408;52.062;11.722;2023-08-01T07:13:49;99198.63;;;19.09;100.00
47670;BME280;33408;52.062;11.722;2023-08-01T07:16:16;99212.34;;;19.12;100.00
47670;BME280;33408;52.062;11.722;2023-08-01T07:18:42;99207.38;;;19.09;100.00
47670;BME280;33408;52.062;11.722;2023-08-01T07:21:10;99208.19;;;19.10;100.00
47670;BME280;33408;52.062;11.722;2023-08-01T07:23:37;99212.59;;;18.98;100.00
47670;BME280;33408;52.062;11.722;2023-08-01T07:26:03;99202.47;;;19.05;100.00
47670;BME280;33408;52.062;11.722;2023-08-01T07:28:30;99212.00;;;18.94;100.00
47670;BME280;33408;52.062;11.722;2023-08-01T07:31:00;99208.91;;;18.89;100.00
47670;BME280;33408;52.062;11.722;2023-08-01T07:33:26;99208.69;;;18.92;100.00
47670;BME280;33408;52.062;11.722;2023-08-01T07:35:53;99215.06;;;18.77;100.00
47670;BME280;33408;52.062;11.722;2023-08-01T07:38:21;99220.06;;;18.69;100.00
47670;BME280;33408;52.062;11.722;2023-08-01T07:40:48;99228.19;;;18.66;100.00
47670;BME280;33408;52.062;11.722;2023-08-01T07:43:15;99214.34;;;18.64;100.00
47670;BME280;33408;52.062;11.722;2023-08-01T07:45:41;99218.31;;;18.69;100.00
47670;BME280;33408;52.062;11.722;2023-08-01T07:48:08;99221.63;;;18.71;100.00
47670;BME280;33408;52.062;11.722;2023-08-01T07:50:34;99224.41;;;18.81;100.00
47670;BME280;33408;52.062;11.722;2023-08-01T07:53:01;99224.28;;;18.83;100.00
47670;BME280;33408;52.062;11.722;2023-08-01T07:55:33;99238.47;;;18.80;100.00
47670;BME280;33408;52.062;11.722;2023-08-01T07:58:00;99236.06;;;18.77;100.00
47670;BME280;33408;52.062;11.722;2023-08-01T08:00:26;99251.44;;;18.70;100.00
47670;BME280;33408;52.062;11.722;2023-08-01T08:02:53;99256.59;;;18.72;100.00
47670;BME280;33408;52.062;11.722;2023-08-01T08:05:20;99261.25;;;18.68;100.00
47670;BME280;33408;52.062;11.722;2023-08-01T08:07:46;99263.50;;;18.62;100.00
47670;BME280;33408;52.062;11.722;2023-08-01T08:10:13;99268.63;;;18.63;100.00
47670;BME280;33408;52.062;11.722;2023-08-01T08:12:41;99276.22;;;18.44;100.00
47670;BME280;33408;52.062;11.722;2023-08-01T08:15:08;99282.81;;;18.01;100.00
47670;BME280;33408;52.062;11.722;2023-08-01T08:17:35;99280.44;;;17.85;100.00
47670;BME280;33408;52.062;11.722;2023-08-01T08:20:02;99280.97;;;17.77;100.00
47670;BME280;33408;52.062;11.722;2023-08-01T08:22:31;99278.94;;;17.70;100.00
47670;BME280;33408;52.062;11.722;2023-08-01T08:24:58;99285.88;;;17.58;100.00
47670;BME280;33408;52.062;11.722;2023-08-01T08:27:24;99297.34;;;17.31;100.00
47670;BME280;33408;52.062;11.722;2023-08-01T08:29:52;99292.13;;;17.05;100.00
47670;BME280;33408;52.062;11.722;2023-08-01T08:32:19;99305.53;;;17.01;100.00
47670;BME280;33408;52.062;11.722;2023-08-01T08:34:46;99309.06;;;17.00;100.00
47670;BME280;33408;52.062;11.722;2023-08-01T08:37:12;99313.91;;;16.93;100.00
47670;BME280;33408;52.062;11.722;2023-08-01T08:39:39;99322.44;;;16.82;100.00
47670;BME280;33408;52.062;11.722;2023-08-01T08:42:06;99334.56;;;16.70;100.00
47670;BME280;33408;52.062;11.722;2023-08-01T08:44:35;99333.44;;;16.74;100.00
47670;BME280;33408;52.062;11.722;2023-08-01T08:47:07;99342.22;;;16.73;100.00
47670;BME280;33408;52.062;11.722;2023-08-01T08:49:35;99341.81;;;16.80;100.00
47670;BME280;33408;52.062;11.722;2023-08-01T08:52:02;99336.75;;;16.64;100.00
47670;BME280;33408;52.062;11.722;2023-08-01T08:54:30;99336.47;;;16.68;100.00
47670;BME280;33408;52.062;11.722;2023-08-01T08:56:58;99343.53;;;16.66;100.00
47670;BME280;33408;52.062;11.722;2023-08-01T08:59:25;99356.84;;;16.63;100.00
47670;BME280;33408;52.062;11.722;2023-08-01T09:01:53;99358.41;;;16.66;100.00
47670;BME280;33408;52.062;11.722;2023-08-01T09:04:21;99357.28;;;16.70;100.00
47670;BME280;33408;52.062;11.722;2023-08-01T09:06:49;99356.13;;;16.74;100.00
47670;BME280;33408;52.062;11.722;2023-08-01T09:09:18;99363.09;;;16.88;100.00
47670;BME280;33408;52.062;11.722;2023-08-01T09:11:45;99369.53;;;16.82;100.00
47670;BME280;33408;52.062;11.722;2023-08-01T09:14:12;99376.91;;;16.90;100.00
47670;BME280;33408;52.062;11.722;2023-08-01T09:16:40;99373.16;;;16.94;100.00
47670;BME280;33408;52.062;11.722;2023-08-01T09:19:07;99385.94;;;16.86;100.00
47670;BME280;33408;52.062;11.722;2023-08-01T09:21:38;99380.75;;;16.71;100.00
47670;BME280;33408;52.062;11.722;2023-08-01T09:24:08;99368.91;;;16.78;100.00
47670;BME280;33408;52.062;11.722;2023-08-01T09:26:35;99373.06;;;16.95;100.00
47670;BME280;33408;52.062;11.722;2023-08-01T09:29:02;99369.31;;;17.12;100.00
47670;BME280;33408;52.062;11.722;2023-08-01T09:31:30;99366.69;;;17.38;100.00
47670;BME280;33408;52.062;11.722;2023-08-01T09:33:57;99371.00;;;17.39;100.00
47670;BME280;33408;52.062;11.722;2023-08-01T09:36:24;99369.72;;;17.45;100.00
47670;BME280;33408;52.062;11.722;2023-08-01T09:38:58;99371.00;;;17.39;100.00
47670;BME280;33408;52.062;11.722;2023-08-01T09:41:25;99371.53;;;17.31;100.00
47670;BME280;33408;52.062;11.722;2023-08-01T09:43:51;99382.00;;;17.19;100.00
47670;BME280;33408;52.062;11.722;2023-08-01T09:46:18;99376.97;;;17.28;100.00
47670;BME280;33408;52.062;11.722;2023-08-01T09:48:45;99380.97;;;17.34;100.00
47670;BME280;33408;52.062;11.722;2023-08-01T09:51:13;99381.78;;;17.22;100.00
47670;BME280;33408;52.062;11.722;2023-08-01T09:53:48;99383.38;;;17.37;100.00
47670;BME280;33408;52.062;11.722;2023-08-01T09:56:18;99383.34;;;16.99;100.00
47670;BME280;33408;52.062;11.722;2023-08-01T09:58:46;99378.63;;;17.04;100.00
47670;BME280;33408;52.062;11.722;2023-08-01T10:01:14;99377.50;;;16.81;100.00
47670;BME280;33408;52.062;11.722;2023-08-01T10:03:44;99388.66;;;16.57;100.00
47670;BME280;33408;52.062;11.722;2023-08-01T10:06:13;99375.56;;;16.30;100.00
47670;BME280;33408;52.062;11.722;2023-08-01T10:08:40;99380.22;;;16.39;100.00
47670;BME280;33408;52.062;11.722;2023-08-01T10:11:07;99378.66;;;16.22;100.00
47670;BME280;33408;52.062;11.722;2023-08-01T10:13:36;99372.28;;;16.40;100.00
47670;BME280;33408;52.062;11.722;2023-08-01T10:16:03;99363.59;;;16.53;100.00
47670;BME280;33408;52.062;11.722;2023-08-01T10:18:32;99377.50;;;16.81;100.00
47670;BME280;33408;52.062;11.722;2023-08-01T10:21:00;99375.50;;;17.11;100.00
47670;BME280;33408;52.062;11.722;2023-08-01T10:23:27;99374.84;;;17.34;100.00
47670;BME280;33408;52.062;11.722;2023-08-01T10:25:54;99372.88;;;17.50;100.00
47670;BME280;33408;52.062;11.722;2023-08-01T10:28:30;99367.25;;;17.80;100.00
47670;BME280;33408;52.062;11.722;2023-08-01T10:31:11;99360.06;;;18.45;100.00
47670;BME280;33408;52.062;11.722;2023-08-01T10:33:40;99364.88;;;18.63;100.00
47670;BME280;33408;52.062;11.722;2023-08-01T10:36:14;99351.94;;;18.72;100.00
47670;BME280;33408;52.062;11.722;2023-08-01T10:38:49;99341.81;;;19.26;100.00
47670;BME280;33408;52.062;11.722;2023-08-01T10:41:21;99343.47;;;19.27;100.00
47670;BME280;33408;52.062;11.722;2023-08-01T10:43:48;99337.16;;;19.63;100.00
47670;BME280;33408;52.062;11.722;2023-08-01T10:46:16;99332.59;;;19.65;100.00
47670;BME280;33408;52.062;11.722;2023-08-01T10:48:50;99329.16;;;19.42;100.00
47670;BME280;33408;52.062;11.722;2023-08-01T10:51:17;99338.72;;;19.66;100.00
47670;BME280;33408;52.062;11.722;2023-08-01T10:53:44;99337.53;;;19.81;100.00
47670;BME280;33408;52.062;11.722;2023-08-01T10:56:16;99338.06;;;20.51;100.00
47670;BME280;33408;52.062;11.722;2023-08-01T10:58:43;99346.16;;;20.27;100.00
47670;BME280;33408;52.062;11.722;2023-08-01T11:01:10;99341.41;;;20.10;100.00
47670;BME280;33408;52.062;11.722;2023-08-01T11:03:38;99339.78;;;19.52;100.00
47670;BME280;33408;52.062;11.722;2023-08-01T11:06:05;99337.88;;;19.77;100.00
47670;BME280;33408;52.062;11.722;2023-08-01T11:08:36;99338.94;;;19.97;100.00
47670;BME280;33408;52.062;11.722;2023-08-01T11:11:07;99343.75;;;20.35;100.00
47670;BME280;33408;52.062;11.722;2023-08-01T11:13:34;99340.34;;;20.77;100.00
47670;BME280;33408;52.062;11.722;2023-08-01T11:16:02;99349.09;;;20.99;100.00
47670;BME280;33408;52.062;11.722;2023-08-01T11:18:30;99347.81;;;20.93;100.00
47670;BME280;33408;52.062;11.722;2023-08-01T11:20:58;99340.34;;;20.98;100.00
47670;BME280;33408;52.062;11.722;2023-08-01T11:23:28;99339.13;;;21.02;100.00
47670;BME280;33408;52.062;11.722;2023-08-01T11:25:55;99345.22;;;21.24;100.00
47670;BME280;33408;52.062;11.722;2023-08-01T11:28:22;99333.84;;;20.81;100.00
47670;BME280;33408;52.062;11.722;2023-08-01T11:30:49;99335.19;;;21.18;100.00
47670;BME280;33408;52.062;11.722;2023-08-01T11:33:18;99339.13;;;21.33;100.00
47670;BME280;33408;52.062;11.722;2023-08-01T11:35:49;99328.78;;;20.89;100.00
47670;BME280;33408;52.062;11.722;2023-08-01T11:38:17;99328.59;;;20.49;100.00
47670;BME280;33408;52.062;11.722;2023-08-01T11:40:44;99328.97;;;20.76;100.00
47670;BME280;33408;52.062;11.722;2023-08-01T11:43:11;99326.28;;;20.55;100.00
47670;BME280;33408;52.062;11.722;2023-08-01T11:45:37;99329.88;;;20.87;100.00
47670;BME280;33408;52.062;11.722;2023-08-01T11:48:14;99334.84;;;20.80;100.00
47670;BME280;33408;52.062;11.722;2023-08-01T11:50:41;99332.41;;;20.67;100.00
47670;BME280;33408;52.062;11.722;2023-08-01T11:53:18;99332.56;;;21.18;100.00
47670;BME280;33408;52.062;11.722;2023-08-01T11:55:45;99325.16;;;21.73;100.00
47670;BME280;33408;52.062;11.722;2023-08-01T11:58:13;99320.75;;;21.74;100.00
47670;BME280;33408;52.062;11.722;2023-08-01T12:00:40;99323.56;;;21.92;100.00
47670;BME280;33408;52.062;11.722;2023-08-01T12:03:08;99324.53;;;22.00;100.00
47670;BME280;33408;52.062;11.722;2023-08-01T12:05:38;99328.16;;;21.59;100.00
47670;BME280;33408;52.062;11.722;2023-08-01T12:08:12;99329.28;;;21.25;100.00
47670;BME280;33408;52.062;11.722;2023-08-01T12:10:41;99327.94;;;20.68;100.00
47670;BME280;33408;52.062;11.722;2023-08-01T12:13:19;99330.06;;;21.47;100.00
47670;BME280;33408;52.062;11.722;2023-08-01T12:15:47;99325.81;;;22.06;100.00
47670;BME280;33408;52.062;11.722;2023-08-01T12:18:19;99330.22;;;21.24;100.00
47670;BME280;33408;52.062;11.722;2023-08-01T12:20:46;99330.44;;;21.11;100.00
47670;BME280;33408;52.062;11.722;2023-08-01T12:23:13;99329.63;;;21.73;100.00
47670;BME280;33408;52.062;11.722;2023-08-01T12:25:41;99321.75;;;22.02;100.00
47670;BME280;33408;52.062;11.722;2023-08-01T12:28:07;99320.81;;;22.22;100.00
47670;BME280;33408;52.062;11.722;2023-08-01T12:30:34;99317.78;;;22.47;100.00
47670;BME280;33408;52.062;11.722;2023-08-01T12:33:00;99317.78;;;22.47;100.00
47670;BME280;33408;52.062;11.722;2023-08-01T12:35:27;99320.53;;;22.26;100.00
47670;BME280;33408;52.062;11.722;2023-08-01T12:37:54;99324.47;;;22.51;100.00
47670;BME280;33408;52.062;11.722;2023-08-01T12:40:20;99326.69;;;22.55;100.00